createdAt,value
2023-01-20T00:09:01.625Z,11.00
2023-01-20T00:14:08.232Z,6.50
2023-01-20T00:19:17.917Z,2.00
2023-01-20T00:24:23.221Z,2.00
2023-01-20T00:29:28.396Z,10.00
2023-01-20T00:34:33.504Z,6.67
2023-01-20T00:39:39.495Z,17.00
2023-01-20T00:44:45.353Z,10.67
2023-01-20T00:49:51.258Z,6.00
2023-01-20T00:54:56.320Z,4.50
2023-01-20T01:00:01.748Z,10.50
2023-01-20T01:05:09.482Z,7.00
2023-01-20T01:10:14.579Z,15.50
2023-01-20T01:15:19.942Z,4.00
2023-01-20T01:20:25.703Z,6.00
2023-01-20T01:25:30.795Z,7.00
2023-01-20T01:30:35.761Z,10.50
2023-01-20T01:35:40.730Z,7.00
2023-01-20T01:40:51.242Z,7.50
2023-01-20T01:45:57.085Z,10.00
2023-01-20T01:51:30.051Z,5.00
2023-01-20T01:56:36.560Z,5.00
2023-01-20T02:01:46.681Z,14.00
2023-01-20T02:07:01.075Z,0.00
2023-01-20T02:12:12.468Z,9.00
2023-01-20T02:17:23.140Z,2.67
2023-01-20T02:22:39.189Z,10.00
2023-01-20T02:28:06.101Z,9.33
2023-01-20T02:33:43.054Z,4.00
2023-01-20T02:39:03.279Z,12.00
2023-01-20T02:44:22.154Z,3.00
2023-01-20T02:49:46.786Z,6.00
2023-01-20T02:54:55.411Z,10.00
2023-01-20T03:00:11.970Z,11.00
2023-01-20T03:05:22.630Z,11.50
2023-01-20T03:10:31.413Z,7.00
2023-01-20T03:15:51.337Z,7.00
2023-01-20T03:20:57.590Z,11.33
2023-01-20T03:26:06.389Z,8.67
2023-01-20T03:31:26.845Z,3.50
2023-01-20T03:36:33.524Z,4.50
2023-01-20T03:41:56.300Z,7.50
2023-01-20T03:47:30.759Z,13.00
2023-01-20T03:57:57.438Z,4.00
2023-01-20T04:03:06.854Z,4.00
2023-01-20T04:08:14.003Z,6.00
2023-01-20T04:13:18.779Z,3.00
2023-01-20T04:18:25.354Z,2.50
2023-01-20T04:23:47.093Z,3.00
2023-01-20T04:28:51.684Z,7.00
2023-01-20T04:33:57.145Z,4.00
2023-01-20T04:39:01.680Z,14.67
2023-01-20T04:44:06.310Z,6.00
2023-01-20T04:49:12.350Z,5.33
2023-01-20T04:54:17.951Z,4.00
2023-01-20T04:59:22.569Z,0.00
2023-01-20T05:04:27.195Z,6.00
2023-01-20T05:09:32.902Z,1.50
2023-01-20T05:14:37.731Z,6.00
2023-01-20T05:19:42.299Z,0.00
2023-01-20T05:24:46.839Z,12.00
2023-01-20T05:29:51.449Z,6.50
2023-01-20T05:34:55.992Z,0.00
2023-01-20T05:40:00.668Z,7.50
2023-01-20T05:45:05.660Z,8.67
2023-01-20T05:55:14.710Z,8.00
2023-01-20T06:00:20.069Z,12.00
2023-01-20T06:10:31.586Z,2.00
2023-01-20T06:15:36.151Z,6.00
2023-01-20T06:20:41.922Z,7.50
2023-01-20T06:25:46.390Z,2.67
2023-01-20T06:30:50.971Z,6.00
2023-01-20T06:41:08.260Z,1.00
2023-01-20T06:46:17.841Z,1.50
2023-01-20T06:51:22.830Z,6.67
2023-01-20T06:56:27.439Z,6.00
2023-01-20T07:01:33.316Z,7.00
2023-01-20T07:06:40.747Z,2.00
2023-01-20T07:11:45.326Z,0.00
2023-01-20T07:16:50.405Z,4.00
2023-01-20T07:21:55.153Z,7.33
2023-01-20T07:26:59.761Z,10.00
2023-01-20T07:32:04.256Z,9.33
2023-01-20T07:37:08.885Z,17.00
2023-01-20T07:42:14.575Z,1.50
2023-01-20T07:47:21.042Z,17.75
2023-01-20T07:52:25.668Z,11.50
2023-01-20T07:57:34.745Z,4.00
2023-01-20T08:02:40.229Z,4.00
2023-01-20T08:07:44.764Z,14.00
2023-01-20T08:12:49.302Z,7.33
2023-01-20T08:17:58.310Z,8.50
2023-01-20T08:23:03.418Z,6.50
2023-01-20T08:28:08.906Z,3.50
2023-01-20T08:33:13.946Z,3.33
2023-01-20T08:38:21.913Z,3.33
2023-01-20T08:43:26.999Z,3.33
2023-01-20T08:48:31.819Z,3.50
2023-01-20T08:53:37.215Z,5.00
2023-01-20T08:58:42.317Z,7.00
2023-01-20T09:03:59.272Z,5.00
2023-01-20T09:09:09.567Z,8.00
2023-01-20T09:14:14.381Z,4.00
2023-01-20T09:19:20.383Z,8.50
2023-01-20T09:24:26.522Z,6.00
2023-01-20T09:29:31.621Z,13.50
2023-01-20T09:34:36.950Z,10.00
2023-01-20T09:40:00.110Z,12.67
2023-01-20T09:45:26.049Z,17.00
2023-01-20T09:51:06.567Z,50.00
2023-01-20T09:56:17.829Z,41.67
2023-01-20T10:01:41.814Z,43.00
2023-01-20T10:07:02.230Z,44.50
2023-01-20T10:12:35.548Z,46.33
2023-01-20T10:18:10.583Z,47.50
2023-01-20T10:23:30.745Z,50.00
2023-01-20T10:28:43.039Z,50.00
2023-01-20T10:33:49.642Z,42.50
2023-01-20T10:39:04.071Z,39.00
2023-01-20T10:44:15.866Z,49.00
2023-01-20T10:49:38.215Z,63.33
2023-01-20T10:55:20.982Z,62.25
2023-01-20T11:00:29.083Z,31.33
2023-01-20T11:05:42.763Z,46.00
2023-01-20T11:10:51.144Z,42.33
2023-01-20T11:16:04.266Z,45.00
2023-01-20T11:21:13.396Z,48.50
2023-01-20T11:26:37.547Z,50.00
2023-01-20T11:31:53.080Z,31.75
2023-01-20T11:37:06.944Z,36.67
2023-01-20T11:42:19.282Z,38.75
2023-01-20T11:47:30.901Z,17.00
2023-01-20T11:52:39.863Z,17.00
2023-01-20T11:57:53.587Z,31.33
2023-01-20T12:03:28.638Z,30.50
2023-01-20T12:08:36.665Z,26.00
2023-01-20T12:14:16.589Z,30.00
2023-01-20T12:19:28.813Z,41.75
2023-01-20T12:25:09.399Z,45.00
2023-01-20T12:30:40.820Z,32.33
2023-01-20T12:36:09.239Z,41.50
2023-01-20T12:41:46.441Z,42.00
2023-01-20T12:47:07.864Z,37.00
2023-01-20T12:52:25.004Z,31.00
2023-01-20T12:57:33.349Z,26.25
2023-01-20T13:02:45.030Z,13.33
2023-01-20T13:08:26.475Z,23.00
2023-01-20T13:13:56.824Z,29.75
2023-01-20T13:19:19.148Z,27.00
2023-01-20T13:24:30.552Z,20.25
2023-01-20T13:29:59.332Z,20.00
2023-01-20T13:35:27.399Z,14.00
2023-01-20T13:40:38.430Z,8.67
2023-01-20T13:50:51.568Z,10.67
2023-01-20T13:55:59.384Z,10.00
2023-01-20T14:01:10.347Z,11.33
2023-01-20T14:06:15.703Z,18.33
2023-01-20T14:11:24.683Z,15.67
2023-01-20T14:16:29.727Z,25.25
2023-01-20T14:21:42.825Z,14.67
2023-01-20T14:26:48.053Z,6.50
2023-01-20T14:37:19.747Z,14.50
2023-01-20T14:42:27.094Z,11.00
2023-01-20T14:47:34.996Z,8.67
2023-01-20T14:52:40.797Z,12.50
2023-01-20T14:57:46.210Z,10.00
2023-01-20T15:03:09.243Z,9.00
2023-01-20T15:08:26.445Z,9.00
2023-01-20T15:13:32.711Z,12.50
2023-01-20T15:18:37.670Z,9.00
2023-01-20T15:23:45.099Z,22.00
2023-01-20T15:28:50.755Z,20.00
2023-01-20T15:33:56.606Z,11.33
2023-01-20T15:39:01.704Z,16.50
2023-01-20T15:44:06.717Z,8.00
2023-01-20T15:49:16.285Z,22.25
2023-01-20T15:54:21.481Z,14.75
2023-01-20T15:59:27.205Z,15.00
2023-01-20T16:04:32.967Z,14.00
2023-01-20T16:09:40.049Z,16.67
2023-01-20T16:14:45.923Z,12.50
2023-01-20T16:19:51.731Z,15.33
2023-01-20T16:24:56.578Z,13.75
2023-01-20T16:30:01.315Z,8.00
2023-01-20T16:35:06.624Z,17.00
2023-01-20T16:40:20.205Z,6.00
2023-01-20T16:45:31.788Z,15.00
2023-01-20T16:50:37.334Z,8.00
2023-01-20T16:55:46.291Z,12.00
2023-01-20T17:00:51.085Z,12.50
2023-01-20T17:05:58.652Z,14.25
2023-01-20T17:11:03.166Z,10.50
2023-01-20T17:16:08.163Z,21.33
2023-01-20T17:21:14.752Z,19.33
2023-01-20T17:26:21.028Z,19.00
2023-01-20T17:31:26.375Z,23.00
2023-01-20T17:36:32.736Z,17.00
2023-01-20T17:41:37.331Z,25.25
2023-01-20T17:46:42.370Z,17.33
2023-01-20T17:51:46.985Z,17.67
2023-01-20T17:56:51.642Z,14.50
2023-01-20T18:01:57.414Z,14.67
2023-01-20T18:07:01.978Z,13.50
2023-01-20T18:12:06.871Z,18.00
2023-01-20T18:17:11.444Z,22.33
2023-01-20T18:22:17.291Z,13.00
2023-01-20T18:27:21.914Z,18.33
2023-01-20T18:32:28.743Z,15.00
2023-01-20T18:37:34.286Z,13.50
2023-01-20T18:42:38.868Z,15.00
2023-01-20T18:47:43.510Z,13.75
2023-01-20T18:52:48.087Z,14.33
2023-01-20T18:57:52.689Z,18.00
2023-01-20T19:02:57.781Z,11.33
2023-01-20T19:08:02.289Z,17.00
2023-01-20T19:13:07.915Z,15.00
2023-01-20T19:28:21.316Z,15.00
2023-01-20T19:33:25.899Z,9.33
2023-01-20T19:38:32.587Z,17.00
2023-01-20T19:43:38.229Z,12.67
2023-01-20T19:48:43.684Z,10.00
2023-01-20T19:53:49.756Z,15.00
2023-01-20T19:58:56.405Z,12.00
2023-01-20T20:04:05.556Z,13.50
2023-01-20T20:09:13.769Z,15.00
2023-01-20T20:14:22.043Z,15.00
2023-01-20T20:19:27.930Z,15.00
2023-01-20T20:24:32.468Z,11.00
2023-01-20T20:29:37.169Z,22.67
2023-01-20T20:34:41.877Z,11.50
2023-01-20T20:39:47.960Z,6.00
2023-01-20T20:44:52.553Z,22.33
2023-01-20T20:49:58.211Z,14.75
2023-01-20T20:55:02.817Z,17.00
2023-01-20T21:00:08.550Z,13.25
2023-01-20T21:05:13.127Z,14.33
2023-01-20T21:10:18.727Z,15.50
2023-01-20T21:15:23.499Z,15.00
2023-01-20T21:20:28.135Z,13.50
2023-01-20T21:25:34.099Z,27.00
2023-01-20T21:30:40.867Z,26.33
2023-01-20T21:35:47.351Z,18.75
2023-01-20T21:46:09.458Z,14.00
2023-01-20T21:51:50.813Z,19.50
2023-01-20T21:56:55.363Z,17.33
2023-01-20T22:02:00.170Z,27.00
2023-01-20T22:07:04.815Z,13.33
2023-01-20T22:12:10.220Z,11.50
2023-01-20T22:17:14.875Z,17.00
2023-01-20T22:22:21.136Z,17.75
2023-01-20T22:27:26.669Z,12.75
2023-01-20T22:32:31.461Z,18.33
2023-01-20T22:37:36.028Z,24.50
2023-01-20T22:42:40.614Z,19.33
2023-01-20T22:47:45.268Z,9.50
2023-01-20T22:52:50.339Z,40.00
2023-01-20T22:57:55.106Z,25.00
2023-01-20T23:02:59.835Z,20.00
2023-01-20T23:08:04.405Z,18.00
2023-01-20T23:13:09.150Z,41.25
2023-01-20T23:18:14.095Z,29.50
2023-01-20T23:23:18.873Z,32.00
2023-01-20T23:28:23.378Z,32.67
2023-01-20T23:33:28.325Z,27.00
2023-01-20T23:38:33.352Z,33.67
2023-01-20T23:43:38.028Z,29.67
2023-01-20T23:48:42.690Z,33.00
2023-01-20T23:53:47.226Z,38.67
2023-01-20T23:58:52.619Z,26.50
